createdAt,value
2023-05-13T00:01:11.652Z,99.90
2023-05-13T00:03:38.676Z,99.90
2023-05-13T00:06:05.779Z,99.90
2023-05-13T00:08:32.709Z,99.90
2023-05-13T00:10:59.535Z,99.90
2023-05-13T00:13:26.876Z,99.90
2023-05-13T00:15:53.783Z,99.90
2023-05-13T00:18:20.751Z,99.90
2023-05-13T00:20:47.712Z,99.90
2023-05-13T00:23:14.709Z,99.90
2023-05-13T00:25:42.195Z,99.90
2023-05-13T00:28:09.063Z,99.90
2023-05-13T00:30:35.951Z,99.90
2023-05-13T00:33:03.021Z,99.90
2023-05-13T00:35:29.979Z,99.90
2023-05-13T00:37:56.985Z,99.90
2023-05-13T00:40:24.997Z,99.90
2023-05-13T00:42:52.438Z,99.90
2023-05-13T00:45:19.321Z,99.90
2023-05-13T00:47:46.578Z,99.90
2023-05-13T00:50:14.618Z,99.90
2023-05-13T00:52:42.983Z,99.90
2023-05-13T00:55:11.117Z,99.90
2023-05-13T00:57:40.265Z,99.90
2023-05-13T01:00:08.741Z,99.90
2023-05-13T01:03:03.476Z,99.90
2023-05-13T01:05:47.875Z,99.90
2023-05-13T01:08:23.877Z,99.90
2023-05-13T01:10:55.464Z,99.90
2023-05-13T01:13:25.017Z,99.90
2023-05-13T01:15:59.033Z,99.90
2023-05-13T01:18:31.390Z,99.90
2023-05-13T01:21:01.248Z,99.90
2023-05-13T01:23:28.176Z,99.90
2023-05-13T01:25:55.031Z,99.90
2023-05-13T01:28:22.255Z,99.90
2023-05-13T01:30:49.694Z,99.90
2023-05-13T01:33:18.213Z,99.90
2023-05-13T01:35:47.461Z,99.90
2023-05-13T01:38:15.346Z,99.90
2023-05-13T01:40:43.066Z,99.90
2023-05-13T01:43:09.946Z,99.90
2023-05-13T01:45:37.363Z,99.90
2023-05-13T01:48:04.367Z,99.90
2023-05-13T01:50:31.324Z,99.90
2023-05-13T01:52:58.248Z,99.90
2023-05-13T01:55:25.112Z,99.90
2023-05-13T01:57:52.024Z,99.90
2023-05-13T02:00:19.281Z,99.90
2023-05-13T02:02:47.263Z,99.90
2023-05-13T02:05:14.330Z,99.90
2023-05-13T02:07:41.187Z,99.90
2023-05-13T02:10:08.400Z,99.90
2023-05-13T02:12:35.295Z,99.90
2023-05-13T02:15:02.168Z,99.90
2023-05-13T02:17:29.063Z,99.90
2023-05-13T02:19:55.978Z,99.90
2023-05-13T02:22:22.870Z,99.90
2023-05-13T02:24:49.689Z,99.90
2023-05-13T02:27:16.755Z,99.90
2023-05-13T02:29:43.656Z,99.90
2023-05-13T02:32:10.589Z,99.90
2023-05-13T02:34:37.788Z,99.90
2023-05-13T02:37:05.356Z,99.90
2023-05-13T02:39:32.195Z,99.90
2023-05-13T02:41:59.937Z,99.90
2023-05-13T02:44:26.874Z,99.90
2023-05-13T02:46:53.863Z,99.90
2023-05-13T02:49:20.866Z,99.90
2023-05-13T02:51:48.410Z,99.90
2023-05-13T02:54:15.414Z,99.90
2023-05-13T02:56:42.319Z,99.90
2023-05-13T02:59:09.206Z,99.90
2023-05-13T03:01:36.121Z,99.90
2023-05-13T03:04:02.998Z,99.90
2023-05-13T03:06:29.808Z,99.90
2023-05-13T03:08:56.649Z,99.90
2023-05-13T03:11:24.658Z,99.90
2023-05-13T03:13:51.655Z,99.90
2023-05-13T03:16:18.547Z,99.90
2023-05-13T03:18:45.444Z,99.90
2023-05-13T03:21:12.408Z,99.90
2023-05-13T03:23:39.271Z,99.90
2023-05-13T03:26:06.119Z,99.90
2023-05-13T03:28:32.982Z,99.90
2023-05-13T03:30:59.949Z,99.90
2023-05-13T03:33:27.144Z,99.90
2023-05-13T03:35:54.258Z,99.90
2023-05-13T03:38:21.361Z,99.90
2023-05-13T03:40:48.210Z,99.90
2023-05-13T03:43:15.088Z,99.90
2023-05-13T03:45:42.058Z,99.90
2023-05-13T03:48:09.043Z,99.90
2023-05-13T03:50:36.014Z,99.90
2023-05-13T03:53:04.168Z,99.90
2023-05-13T03:55:31.029Z,99.90
2023-05-13T03:57:57.895Z,99.90
2023-05-13T04:00:24.760Z,99.90
2023-05-13T04:02:51.837Z,99.90
2023-05-13T04:05:19.008Z,99.90
2023-05-13T04:07:46.481Z,99.90
2023-05-13T04:10:15.427Z,99.90
2023-05-13T04:12:42.722Z,99.90
2023-05-13T04:15:10.078Z,99.90
2023-05-13T04:17:36.993Z,99.90
2023-05-13T04:20:04.162Z,99.90
2023-05-13T04:22:31.039Z,99.90
2023-05-13T04:24:57.904Z,99.90
2023-05-13T04:27:25.002Z,99.90
2023-05-13T04:29:51.953Z,99.90
2023-05-13T04:32:22.210Z,99.90
2023-05-13T04:34:49.778Z,99.90
2023-05-13T04:37:17.000Z,99.90
2023-05-13T04:39:46.642Z,99.90
2023-05-13T04:42:14.495Z,99.90
2023-05-13T04:44:41.410Z,99.90
2023-05-13T04:47:08.481Z,99.90
2023-05-13T04:49:35.567Z,99.90
2023-05-13T04:52:04.812Z,99.90
2023-05-13T04:54:31.707Z,99.90
2023-05-13T04:56:58.579Z,99.90
2023-05-13T04:59:25.550Z,99.90
2023-05-13T05:01:52.480Z,99.90
2023-05-13T05:04:19.485Z,99.90
2023-05-13T05:06:46.445Z,99.90
2023-05-13T05:09:13.331Z,99.90
2023-05-13T05:11:40.208Z,99.90
2023-05-13T05:14:07.160Z,99.90
2023-05-13T05:16:33.992Z,99.90
2023-05-13T05:19:00.876Z,99.90
2023-05-13T05:21:27.772Z,99.90
2023-05-13T05:23:54.724Z,99.90
2023-05-13T05:26:22.367Z,99.90
2023-05-13T05:28:49.594Z,99.90
2023-05-13T05:31:16.585Z,99.90
2023-05-13T05:33:44.278Z,99.90
2023-05-13T05:36:11.125Z,99.90
2023-05-13T05:38:38.141Z,99.90
2023-05-13T05:41:05.289Z,99.90
2023-05-13T05:43:32.164Z,99.90
2023-05-13T05:45:59.051Z,99.90
2023-05-13T05:48:25.956Z,99.90
2023-05-13T05:50:53.035Z,99.90
2023-05-13T05:53:19.962Z,99.90
2023-05-13T05:55:46.843Z,99.90
2023-05-13T05:58:17.163Z,99.90
2023-05-13T06:00:44.062Z,99.90
2023-05-13T06:03:11.054Z,99.90
2023-05-13T06:05:39.413Z,99.90
2023-05-13T06:08:06.478Z,99.90
2023-05-13T06:10:33.388Z,99.90
2023-05-13T06:13:00.301Z,99.90
2023-05-13T06:15:27.223Z,99.90
2023-05-13T06:17:54.206Z,99.90
2023-05-13T06:20:21.398Z,99.90
2023-05-13T06:22:48.530Z,99.90
2023-05-13T06:25:15.850Z,99.90
2023-05-13T06:27:42.717Z,99.90
2023-05-13T06:30:09.746Z,99.90
2023-05-13T06:32:38.128Z,99.90
2023-05-13T06:35:06.717Z,99.90
2023-05-13T06:37:33.604Z,99.90
2023-05-13T06:40:00.717Z,99.90
2023-05-13T06:42:27.590Z,99.90
2023-05-13T06:44:54.541Z,99.90
2023-05-13T06:47:23.159Z,99.90
2023-05-13T06:49:50.731Z,99.90
2023-05-13T06:52:17.599Z,99.90
2023-05-13T06:54:44.482Z,99.90
2023-05-13T06:57:12.269Z,99.90
2023-05-13T06:59:39.257Z,99.90
2023-05-13T07:02:09.741Z,99.90
2023-05-13T07:04:37.365Z,99.90
2023-05-13T07:07:04.398Z,99.90
2023-05-13T07:09:31.295Z,99.90
2023-05-13T07:11:58.185Z,99.90
2023-05-13T07:14:26.209Z,99.90
2023-05-13T07:16:53.147Z,99.90
2023-05-13T07:19:20.191Z,99.90
2023-05-13T07:21:47.096Z,99.90
2023-05-13T07:24:14.685Z,99.90
2023-05-13T07:26:42.188Z,99.90
2023-05-13T07:29:09.032Z,99.90
2023-05-13T07:31:36.051Z,99.90
2023-05-13T07:34:04.053Z,99.90
2023-05-13T07:36:30.960Z,99.90
2023-05-13T07:38:57.800Z,99.90
2023-05-13T07:41:24.661Z,99.90
2023-05-13T07:43:51.563Z,99.90
2023-05-13T07:46:18.447Z,99.90
2023-05-13T07:48:45.535Z,99.90
2023-05-13T07:51:12.446Z,99.90
2023-05-13T07:53:39.355Z,99.90
2023-05-13T07:56:06.269Z,99.90
2023-05-13T07:58:33.412Z,99.90
2023-05-13T08:01:00.780Z,99.90
2023-05-13T08:03:27.898Z,99.90
2023-05-13T08:05:55.051Z,99.90
2023-05-13T08:08:22.437Z,99.90
2023-05-13T08:10:49.327Z,99.90
2023-05-13T08:13:16.215Z,99.90
2023-05-13T08:15:43.237Z,99.90
2023-05-13T08:18:10.211Z,99.90
2023-05-13T08:20:37.285Z,99.90
2023-05-13T08:23:04.182Z,99.90
2023-05-13T08:25:31.105Z,99.90
2023-05-13T08:27:58.199Z,99.90
2023-05-13T08:30:25.096Z,99.90
2023-05-13T08:32:52.655Z,99.90
2023-05-13T08:35:19.873Z,99.90
2023-05-13T08:37:46.835Z,99.90
2023-05-13T08:40:15.022Z,99.30
2023-05-13T08:42:46.258Z,99.90
2023-05-13T08:45:15.384Z,99.20
2023-05-13T08:47:56.194Z,99.00
2023-05-13T08:50:23.501Z,98.10
2023-05-13T08:52:53.560Z,97.80
2023-05-13T08:55:20.996Z,97.90
2023-05-13T08:57:48.331Z,97.60
2023-05-13T09:00:16.910Z,96.70
2023-05-13T09:02:44.670Z,96.40
2023-05-13T09:05:11.840Z,96.70
2023-05-13T09:07:39.795Z,96.00
2023-05-13T09:10:08.121Z,95.40
2023-05-13T09:12:48.652Z,95.50
2023-05-13T09:15:17.698Z,95.40
2023-05-13T09:17:47.482Z,96.00
2023-05-13T09:20:17.061Z,95.70
2023-05-13T09:22:52.764Z,94.40
2023-05-13T09:25:24.104Z,94.80
2023-05-13T09:27:54.130Z,94.60
2023-05-13T09:30:21.505Z,94.30
2023-05-13T09:33:06.300Z,94.00
2023-05-13T09:35:33.795Z,92.90
2023-05-13T09:38:00.886Z,92.80
2023-05-13T09:40:27.905Z,92.10
2023-05-13T09:43:00.980Z,92.00
2023-05-13T09:45:27.861Z,92.30
2023-05-13T09:47:56.197Z,91.90
2023-05-13T09:50:23.589Z,91.30
2023-05-13T09:52:51.235Z,91.00
2023-05-13T09:55:18.487Z,90.40
2023-05-13T09:57:46.512Z,90.10
2023-05-13T10:00:24.752Z,90.60
2023-05-13T10:02:56.730Z,90.00
2023-05-13T10:05:24.866Z,90.40
2023-05-13T10:07:52.389Z,87.80
2023-05-13T10:10:20.095Z,87.90
2023-05-13T10:12:47.660Z,86.60
2023-05-13T10:15:14.794Z,86.10
2023-05-13T10:17:42.437Z,85.40
2023-05-13T10:20:09.558Z,85.10
2023-05-13T10:22:36.899Z,84.90
2023-05-13T10:25:05.221Z,85.20
2023-05-13T10:27:33.289Z,84.80
2023-05-13T10:30:03.649Z,84.80
2023-05-13T10:32:31.645Z,85.30
2023-05-13T10:35:12.582Z,86.90
2023-05-13T10:38:03.916Z,85.20
2023-05-13T10:40:36.652Z,83.10
2023-05-13T10:43:15.302Z,84.60
2023-05-13T10:45:50.395Z,83.70
2023-05-13T10:48:18.511Z,83.30
2023-05-13T10:50:56.820Z,83.70
2023-05-13T10:53:31.992Z,81.70
2023-05-13T10:56:00.040Z,82.40
2023-05-13T10:58:32.393Z,82.90
2023-05-13T11:01:31.138Z,83.50
2023-05-13T11:04:00.836Z,82.20
2023-05-13T11:06:35.218Z,83.20
2023-05-13T11:09:11.853Z,82.20
2023-05-13T11:11:39.354Z,81.90
2023-05-13T11:14:17.366Z,81.80
2023-05-13T11:17:07.447Z,82.70
2023-05-13T11:19:39.255Z,82.90
2023-05-13T11:22:10.707Z,81.00
2023-05-13T11:24:37.933Z,80.90
2023-05-13T11:27:21.312Z,80.20
2023-05-13T11:29:57.060Z,80.40
2023-05-13T11:32:58.396Z,80.10
2023-05-13T11:35:31.692Z,79.70
2023-05-13T11:38:01.452Z,78.40
2023-05-13T11:40:30.783Z,77.80
2023-05-13T11:42:59.184Z,78.60
2023-05-13T11:45:27.870Z,79.10
2023-05-13T11:47:56.517Z,78.60
2023-05-13T11:50:26.568Z,79.60
2023-05-13T11:53:00.775Z,79.20
2023-05-13T11:55:32.692Z,79.10
2023-05-13T11:57:59.952Z,79.00
2023-05-13T12:00:35.775Z,79.10
2023-05-13T12:03:09.684Z,79.10
2023-05-13T12:05:37.193Z,77.30
2023-05-13T12:08:04.388Z,78.50
2023-05-13T12:10:31.270Z,76.70
2023-05-13T12:12:58.709Z,78.60
2023-05-13T12:15:26.301Z,77.50
2023-05-13T12:17:54.729Z,76.30
2023-05-13T12:20:24.035Z,76.70
2023-05-13T12:22:52.704Z,77.50
2023-05-13T12:25:33.050Z,77.80
2023-05-13T12:28:06.360Z,78.00
2023-05-13T12:30:38.097Z,78.70
2023-05-13T12:33:05.377Z,78.40
2023-05-13T12:35:33.307Z,78.00
2023-05-13T12:38:04.459Z,78.90
2023-05-13T12:40:32.482Z,79.10
2023-05-13T12:43:03.189Z,79.50
2023-05-13T12:45:31.800Z,79.20
2023-05-13T12:48:00.208Z,79.50
2023-05-13T12:50:27.460Z,80.30
2023-05-13T12:52:54.685Z,80.40
2023-05-13T12:55:21.781Z,81.00
2023-05-13T12:58:14.936Z,80.70
2023-05-13T13:00:41.895Z,81.20
2023-05-13T13:03:09.024Z,80.80
2023-05-13T13:05:36.079Z,81.40
2023-05-13T13:08:05.347Z,80.50
2023-05-13T13:10:32.453Z,79.60
2023-05-13T13:12:59.313Z,79.30
2023-05-13T13:15:26.168Z,78.30
2023-05-13T13:17:53.091Z,78.40
2023-05-13T13:20:20.003Z,78.00
2023-05-13T13:22:46.825Z,77.90
2023-05-13T13:25:13.667Z,77.60
2023-05-13T13:27:40.528Z,78.10
2023-05-13T13:30:08.108Z,78.20
2023-05-13T13:32:38.013Z,78.80
2023-05-13T13:35:05.717Z,80.00
2023-05-13T13:37:32.890Z,80.90
2023-05-13T13:39:59.763Z,80.00
2023-05-13T13:42:40.138Z,79.00
2023-05-13T13:45:10.794Z,79.30
2023-05-13T13:47:38.400Z,80.70
2023-05-13T13:50:06.204Z,84.60
2023-05-13T13:52:33.260Z,84.10
2023-05-13T13:55:00.621Z,84.80
2023-05-13T13:57:27.576Z,85.20
2023-05-13T13:59:54.458Z,85.00
2023-05-13T14:02:22.022Z,85.40
2023-05-13T14:04:48.958Z,85.20
2023-05-13T14:07:15.993Z,85.80
2023-05-13T14:09:42.850Z,84.60
2023-05-13T14:12:09.700Z,85.50
2023-05-13T14:14:36.579Z,85.80
2023-05-13T14:17:03.649Z,86.40
2023-05-13T14:19:30.618Z,86.50
2023-05-13T14:21:57.470Z,86.00
2023-05-13T14:24:24.652Z,86.80
2023-05-13T14:26:51.517Z,88.70
2023-05-13T14:29:18.387Z,88.70
2023-05-13T14:31:45.352Z,88.10
2023-05-13T14:34:12.330Z,89.50
2023-05-13T14:36:39.203Z,89.70
2023-05-13T14:39:09.085Z,89.70
2023-05-13T14:41:36.283Z,90.60
2023-05-13T14:44:03.302Z,90.80
2023-05-13T14:46:30.395Z,90.40
2023-05-13T14:48:57.304Z,91.20
2023-05-13T14:51:24.112Z,90.50
2023-05-13T14:53:51.008Z,90.80
2023-05-13T14:56:17.955Z,90.80
2023-05-13T14:58:44.841Z,90.90
2023-05-13T15:01:11.718Z,91.10
2023-05-13T15:03:38.804Z,91.40
2023-05-13T15:06:06.460Z,90.70
2023-05-13T15:08:33.340Z,91.50
2023-05-13T15:11:00.982Z,91.60
2023-05-13T15:13:28.750Z,90.50
2023-05-13T15:15:56.121Z,90.20
2023-05-13T15:18:23.068Z,90.10
2023-05-13T15:20:50.252Z,90.00
2023-05-13T15:23:17.128Z,90.10
2023-05-13T15:25:44.025Z,90.70
2023-05-13T15:28:10.906Z,90.90
2023-05-13T15:30:38.607Z,90.50
2023-05-13T15:33:05.666Z,90.20
2023-05-13T15:35:32.674Z,90.30
2023-05-13T15:37:59.947Z,91.10
2023-05-13T15:40:26.892Z,90.50
2023-05-13T15:42:53.745Z,90.40
2023-05-13T15:45:21.070Z,90.20
2023-05-13T15:47:48.054Z,89.00
2023-05-13T15:50:15.048Z,88.80
2023-05-13T15:52:41.947Z,90.10
2023-05-13T15:55:08.826Z,88.50
2023-05-13T15:57:35.749Z,88.90
2023-05-13T16:00:02.613Z,89.30
2023-05-13T16:02:36.502Z,89.40
2023-05-13T16:05:03.829Z,90.60
2023-05-13T16:07:31.103Z,90.30
2023-05-13T16:09:58.017Z,90.30
2023-05-13T16:12:24.897Z,90.90
2023-05-13T16:14:51.753Z,91.00
2023-05-13T16:17:18.715Z,91.20
2023-05-13T16:19:45.521Z,91.60
2023-05-13T16:22:37.788Z,92.20
2023-05-13T16:25:09.812Z,92.50
2023-05-13T16:27:37.994Z,92.60
2023-05-13T16:30:07.384Z,93.10
2023-05-13T16:32:35.152Z,93.60
2023-05-13T16:35:03.329Z,93.80
2023-05-13T16:37:30.441Z,94.20
2023-05-13T16:39:57.641Z,94.60
2023-05-13T16:42:24.518Z,95.10
2023-05-13T16:44:51.711Z,95.40
2023-05-13T16:47:18.578Z,95.60
2023-05-13T16:49:45.607Z,95.90
2023-05-13T16:52:12.592Z,96.10
2023-05-13T16:54:39.566Z,96.60
2023-05-13T16:57:06.402Z,97.30
2023-05-13T16:59:33.295Z,97.30
2023-05-13T17:02:00.795Z,97.80
2023-05-13T17:04:28.501Z,98.10
2023-05-13T17:06:57.529Z,98.40
2023-05-13T17:09:25.915Z,98.70
2023-05-13T17:11:53.992Z,98.90
2023-05-13T17:14:21.446Z,99.50
2023-05-13T17:16:48.622Z,99.90
2023-05-13T17:19:15.655Z,99.90
2023-05-13T17:21:42.702Z,99.90
2023-05-13T17:24:09.585Z,99.90
2023-05-13T17:26:38.417Z,99.90
2023-05-13T17:29:06.048Z,99.90
2023-05-13T17:31:33.708Z,99.90
2023-05-13T17:34:00.760Z,99.90
2023-05-13T17:36:27.701Z,99.90
2023-05-13T17:38:54.621Z,99.90
2023-05-13T17:41:21.818Z,99.90
2023-05-13T17:43:48.728Z,99.90
2023-05-13T17:46:15.720Z,99.90
2023-05-13T17:48:42.807Z,99.90
2023-05-13T17:51:10.437Z,99.90
2023-05-13T17:53:37.294Z,99.90
2023-05-13T17:56:04.339Z,99.90
2023-05-13T17:58:31.186Z,99.90
2023-05-13T18:00:58.134Z,99.90
2023-05-13T18:03:33.632Z,99.90
2023-05-13T18:06:00.669Z,99.90
2023-05-13T18:08:27.599Z,99.90
2023-05-13T18:10:54.553Z,99.90
2023-05-13T18:13:21.451Z,99.90
2023-05-13T18:15:48.371Z,99.90
2023-05-13T18:18:16.287Z,99.90
2023-05-13T18:20:43.187Z,99.90
2023-05-13T18:23:10.108Z,99.90
2023-05-13T18:25:48.562Z,99.90
2023-05-13T18:28:21.735Z,99.90
2023-05-13T18:30:48.628Z,99.90
2023-05-13T18:33:15.677Z,99.90
2023-05-13T18:35:42.653Z,99.90
2023-05-13T18:38:09.494Z,99.90
2023-05-13T18:40:36.326Z,99.90
2023-05-13T18:43:03.210Z,99.90
2023-05-13T18:45:30.164Z,99.90
2023-05-13T18:47:57.095Z,99.90
2023-05-13T18:50:25.521Z,99.90
2023-05-13T18:52:52.451Z,99.90
2023-05-13T18:55:19.392Z,99.90
2023-05-13T18:57:46.476Z,99.90
2023-05-13T19:00:13.827Z,99.90
2023-05-13T19:02:40.887Z,99.90
2023-05-13T19:05:08.644Z,99.90
2023-05-13T19:07:35.561Z,99.90
2023-05-13T19:10:03.722Z,99.90
2023-05-13T19:12:30.570Z,99.90
2023-05-13T19:14:57.444Z,99.90
2023-05-13T19:17:24.427Z,99.90
2023-05-13T19:19:51.369Z,99.90
2023-05-13T19:22:18.252Z,99.90
2023-05-13T19:24:45.144Z,99.90
2023-05-13T19:27:12.202Z,99.90
2023-05-13T19:29:39.085Z,99.90
2023-05-13T19:32:06.371Z,99.90
2023-05-13T19:34:33.325Z,99.90
2023-05-13T19:37:00.361Z,99.90
2023-05-13T19:39:27.230Z,99.90
2023-05-13T19:41:54.085Z,99.90
2023-05-13T19:44:21.023Z,99.90
2023-05-13T19:46:47.962Z,99.90
2023-05-13T19:49:15.025Z,99.90
2023-05-13T19:51:42.091Z,99.90
2023-05-13T19:54:10.926Z,99.90
2023-05-13T19:56:39.173Z,99.90
2023-05-13T19:59:05.998Z,99.90
2023-05-13T20:01:33.058Z,99.90
2023-05-13T20:04:00.172Z,99.90
2023-05-13T20:06:27.354Z,99.90
2023-05-13T20:08:54.207Z,99.90
2023-05-13T20:11:21.419Z,99.90
2023-05-13T20:13:48.314Z,99.90
2023-05-13T20:16:15.181Z,99.90
2023-05-13T20:18:42.227Z,99.90
2023-05-13T20:21:09.145Z,99.90
2023-05-13T20:23:36.027Z,99.90
2023-05-13T20:26:02.880Z,99.90
2023-05-13T20:28:29.905Z,99.90
2023-05-13T20:30:56.906Z,99.90
2023-05-13T20:33:23.870Z,99.90
2023-05-13T20:35:50.786Z,99.90
2023-05-13T20:38:17.708Z,99.90
2023-05-13T20:40:44.593Z,99.90
2023-05-13T20:43:11.406Z,99.90
2023-05-13T20:45:39.778Z,99.90
2023-05-13T20:48:07.033Z,99.90
2023-05-13T20:50:33.962Z,99.90
2023-05-13T20:53:00.940Z,99.90
2023-05-13T20:55:27.988Z,99.90
2023-05-13T20:57:54.873Z,99.90
2023-05-13T21:00:22.194Z,99.90
2023-05-13T21:02:50.472Z,99.90
2023-05-13T21:05:17.613Z,99.90
2023-05-13T21:07:44.506Z,99.90
2023-05-13T21:10:11.445Z,99.90
2023-05-13T21:12:38.317Z,99.90
2023-05-13T21:15:05.881Z,99.90
2023-05-13T21:17:32.800Z,99.90
2023-05-13T21:19:59.668Z,99.90
2023-05-13T21:22:26.544Z,99.90
2023-05-13T21:24:53.678Z,99.90
2023-05-13T21:27:21.384Z,99.90
2023-05-13T21:29:48.277Z,99.90
2023-05-13T21:32:16.542Z,99.90
2023-05-13T21:34:43.537Z,99.90
2023-05-13T21:37:10.430Z,99.90
2023-05-13T21:39:37.380Z,99.90
2023-05-13T21:42:04.505Z,99.90
2023-05-13T21:44:31.385Z,99.90
2023-05-13T21:46:58.297Z,99.90
2023-05-13T21:49:25.296Z,99.90
2023-05-13T21:51:52.157Z,99.90
2023-05-13T21:54:19.472Z,99.90
2023-05-13T21:56:46.731Z,99.90
2023-05-13T21:59:13.651Z,99.90
2023-05-13T22:01:40.615Z,99.90
2023-05-13T22:04:07.562Z,99.90
2023-05-13T22:06:34.604Z,99.90
2023-05-13T22:09:01.811Z,99.90
2023-05-13T22:11:28.689Z,99.90
2023-05-13T22:13:55.703Z,99.90
2023-05-13T22:16:22.572Z,99.90
2023-05-13T22:18:50.938Z,99.90
2023-05-13T22:21:17.916Z,99.90
2023-05-13T22:23:44.892Z,99.90
2023-05-13T22:26:12.131Z,99.90
2023-05-13T22:28:39.121Z,99.90
2023-05-13T22:31:06.292Z,99.90
2023-05-13T22:33:33.137Z,99.90
2023-05-13T22:36:00.022Z,99.90
2023-05-13T22:38:26.863Z,99.90
2023-05-13T22:40:53.763Z,99.90
2023-05-13T22:43:20.917Z,99.90
2023-05-13T22:45:47.857Z,99.90
2023-05-13T22:48:15.147Z,99.90
2023-05-13T22:50:42.051Z,99.90
2023-05-13T22:53:08.913Z,99.90
2023-05-13T22:55:35.817Z,99.90
2023-05-13T22:58:02.856Z,99.90
2023-05-13T23:00:29.729Z,99.90
2023-05-13T23:02:57.500Z,99.90
2023-05-13T23:05:24.447Z,99.90
2023-05-13T23:07:51.348Z,99.90
2023-05-13T23:10:18.224Z,99.90
2023-05-13T23:12:45.137Z,99.90
2023-05-13T23:15:14.432Z,99.90
2023-05-13T23:17:41.380Z,99.90
2023-05-13T23:20:08.848Z,99.90
2023-05-13T23:22:35.986Z,99.90
2023-05-13T23:25:03.754Z,99.90
2023-05-13T23:27:31.569Z,99.90
2023-05-13T23:29:59.030Z,99.90
2023-05-13T23:32:26.181Z,99.90
2023-05-13T23:34:53.049Z,99.90
2023-05-13T23:37:21.899Z,99.90
2023-05-13T23:39:48.844Z,99.90
2023-05-13T23:42:16.885Z,99.90
2023-05-13T23:44:43.846Z,99.90
2023-05-13T23:47:12.102Z,99.90
2023-05-13T23:49:39.138Z,99.90
2023-05-13T23:52:06.386Z,99.90
2023-05-13T23:54:33.284Z,99.90
2023-05-13T23:57:00.208Z,99.90
2023-05-13T23:59:27.125Z,99.90
